Time;durP1;ratioP1;P1;durP2;ratioP2;P2;SDS_P1;SDS_P2;PMS_P1;PMS_P2;Temp;Humidity;BMP_temperature;BMP_pressure;BME280_temperature;BME280_humidity;BME280_pressure;Samples;Min_cycle;Max_cycle;Signal;HPM_P1;HPM_P2
2023/08/07 00:01:44;;;;;;;4.50;1.33;;;;;;;-145.18;100.00;46646.72;4941555;28;20471;-65
2023/08/07 00:04:09;;;;;;;11.70;1.60;;;;;;;-145.18;100.00;46648.69;4940847;29;20023;-65
2023/08/07 00:06:34;;;;;;;9.23;1.70;;;;;;;-145.18;100.00;46650.63;4942998;28;20103;-65
2023/08/07 00:09:00;;;;;;;10.20;2.30;;;;;;;-145.18;100.00;46648.69;4935984;28;20032;-65
2023/08/07 00:11:27;;;;;;;7.67;1.40;;;;;;;-145.18;100.00;46648.69;4935548;29;20042;-65
2023/08/07 00:13:53;;;;;;;10.30;1.57;;;;;;;-145.18;100.00;46652.59;4946972;29;20051;-65
2023/08/07 00:16:18;;;;;;;11.03;1.90;;;;;;;-145.18;100.00;46654.53;4946236;28;20031;-65
2023/08/07 00:18:43;;;;;;;5.93;1.17;;;;;;;-145.18;100.00;46654.53;4949615;28;20035;-65
2023/08/07 00:21:09;;;;;;;9.90;1.80;;;;;;;-145.18;100.00;46654.53;4935807;28;20140;-65
2023/08/07 00:23:34;;;;;;;9.00;1.73;;;;;;;-145.18;100.00;46660.41;4935317;29;20031;-65
2023/08/07 00:26:00;;;;;;;13.03;1.50;;;;;;;-145.18;100.00;46658.44;4946531;28;20110;-65
2023/08/07 00:28:25;;;;;;;8.77;2.23;;;;;;;-145.18;100.00;46662.34;4937722;29;20738;-65
2023/08/07 00:30:50;;;;;;;7.17;1.90;;;;;;;-145.18;100.00;46664.31;4944428;29;20069;-65
2023/08/07 00:33:16;;;;;;;13.50;2.20;;;;;;;-145.18;100.00;46664.31;4947072;29;20059;-66
2023/08/07 00:35:41;;;;;;;19.60;1.70;;;;;;;-145.18;100.00;46662.34;4946968;28;20031;-65
2023/08/07 00:38:06;;;;;;;7.27;1.47;;;;;;;-145.18;100.00;46660.41;4941582;28;20035;-65
2023/08/07 00:40:39;;;;;;;14.10;3.53;;;;;;;-145.18;100.00;46666.25;4945345;28;20059;-65
2023/08/07 00:43:05;;;;;;;7.53;1.50;;;;;;;-145.18;100.00;46668.22;4950736;29;20026;-65
2023/08/07 00:45:36;;;;;;;11.00;1.80;;;;;;;-145.18;100.00;46666.25;4944981;28;20039;-65
2023/08/07 00:48:02;;;;;;;8.37;1.50;;;;;;;-145.18;100.00;46674.06;4942221;28;20039;-65
2023/08/07 00:50:28;;;;;;;10.63;1.87;;;;;;;-145.18;100.00;46668.22;4935070;28;20042;-66
2023/08/07 00:52:54;;;;;;;14.67;1.93;;;;;;;-145.18;100.00;46668.22;4947789;29;20027;-65
2023/08/07 00:55:20;;;;;;;12.07;1.90;;;;;;;-145.18;100.00;46666.25;4947920;28;20031;-65
2023/08/07 00:57:45;;;;;;;12.43;1.93;;;;;;;-145.18;100.00;46668.22;4939496;28;20492;-66
2023/08/07 01:00:13;;;;;;;10.83;1.50;;;;;;;-145.18;100.00;46666.25;4938833;28;20556;-66
2023/08/07 01:02:38;;;;;;;8.63;1.47;;;;;;;-145.18;100.00;46664.31;4944177;28;20118;-65
2023/08/07 01:05:04;;;;;;;9.27;1.20;;;;;;;-145.18;100.00;46666.25;4949843;28;20085;-65
2023/08/07 01:07:29;;;;;;;3.63;1.10;;;;;;;-145.18;100.00;46668.22;4940220;28;20027;-65
2023/08/07 01:09:57;;;;;;;5.57;1.17;;;;;;;-145.18;100.00;46666.25;4945079;28;20043;-65
2023/08/07 01:12:35;;;;;;;5.13;1.20;;;;;;;-145.18;100.00;46666.25;4942115;28;20054;-65
2023/08/07 01:15:11;;;;;;;6.37;1.47;;;;;;;-145.18;100.00;46664.31;4940555;28;20039;-65
2023/08/07 01:17:37;;;;;;;9.20;1.80;;;;;;;-145.18;100.00;46668.22;4941965;28;20061;-65
2023/08/07 01:20:04;;;;;;;5.03;1.30;;;;;;;-145.18;100.00;46668.22;4946219;28;20558;-65
2023/08/07 01:22:29;;;;;;;15.37;1.67;;;;;;;-145.18;100.00;46664.31;4949799;28;20094;-65
2023/08/07 01:24:54;;;;;;;4.80;1.30;;;;;;;-145.18;100.00;46660.41;4946437;28;20032;-65
2023/08/07 01:27:28;;;;;;;7.67;1.60;;;;;;;-145.18;100.00;46668.22;4946565;29;20034;-66
2023/08/07 01:30:12;;;;;;;3.97;1.60;;;;;;;-145.18;100.00;46656.50;4936583;29;20020;-66
2023/08/07 01:32:43;;;;;;;13.97;2.27;;;;;;;-145.18;100.00;46660.41;4940329;28;20032;-65
2023/08/07 01:35:12;;;;;;;16.10;1.57;;;;;;;-145.18;100.00;46656.50;4935675;29;20043;-66
2023/08/07 01:37:40;;;;;;;6.70;2.43;;;;;;;-145.18;100.00;46658.44;4937293;28;20027;-66
2023/08/07 01:40:08;;;;;;;6.47;1.63;;;;;;;-145.18;100.00;46652.59;4937604;28;20024;-66
2023/08/07 01:42:35;;;;;;;9.20;1.70;;;;;;;-145.18;100.00;46652.59;4938874;28;20033;-66
2023/08/07 01:45:00;;;;;;;9.57;1.83;;;;;;;-145.18;100.00;46648.69;4946645;28;20031;-66
2023/08/07 01:47:25;;;;;;;11.37;2.03;;;;;;;-145.18;100.00;46650.63;4933613;29;20035;-66
2023/08/07 01:49:51;;;;;;;7.73;1.83;;;;;;;-145.18;100.00;46648.69;4939513;28;20047;-66
2023/08/07 01:52:16;;;;;;;9.93;2.60;;;;;;;-145.18;100.00;46644.78;4933673;28;20074;-66
2023/08/07 01:54:42;;;;;;;8.53;2.70;;;;;;;-145.18;100.00;46652.59;4933913;28;20071;-66
2023/08/07 01:57:07;;;;;;;15.47;2.63;;;;;;;-145.18;100.00;46648.69;4933546;28;20035;-66
2023/08/07 01:59:32;;;;;;;7.93;2.67;;;;;;;-145.18;100.00;46648.69;4939800;28;20114;-66
2023/08/07 02:01:58;;;;;;;9.70;1.80;;;;;;;-145.18;100.00;46644.78;4952716;28;20246;-66
2023/08/07 02:04:23;;;;;;;17.30;2.60;;;;;;;-145.18;100.00;46650.63;4938642;28;20086;-66
2023/08/07 02:06:49;;;;;;;14.47;2.93;;;;;;;-145.18;100.00;46644.78;4934967;28;20027;-66
2023/08/07 02:09:14;;;;;;;9.77;2.83;;;;;;;-145.18;100.00;46644.78;4943597;28;20550;-66
2023/08/07 02:11:39;;;;;;;13.90;2.93;;;;;;;-145.18;100.00;46650.63;4941856;28;20134;-66
2023/08/07 02:14:05;;;;;;;9.07;2.50;;;;;;;-145.18;100.00;46644.78;4943444;28;20445;-66
2023/08/07 02:16:30;;;;;;;13.73;2.70;;;;;;;-145.18;100.00;46654.53;4939191;29;20118;-67
2023/08/07 02:18:55;;;;;;;10.13;3.23;;;;;;;-145.18;100.00;46650.63;4938200;29;20032;-66
2023/08/07 02:21:21;;;;;;;5.80;1.57;;;;;;;-145.18;100.00;46654.53;4938305;28;20503;-66
2023/08/07 02:23:46;;;;;;;12.47;3.03;;;;;;;-145.18;100.00;46652.59;4947764;28;20034;-66
2023/08/07 02:26:11;;;;;;;3.57;2.03;;;;;;;-145.18;100.00;46656.50;4941994;28;20090;-66
2023/08/07 02:28:37;;;;;;;4.70;1.63;;;;;;;-145.18;100.00;46652.59;4952146;28;20670;-66
2023/08/07 02:31:02;;;;;;;7.33;2.00;;;;;;;-145.18;100.00;46652.59;4936701;28;20110;-66
2023/08/07 02:33:30;;;;;;;15.47;2.33;;;;;;;-145.18;100.00;46654.53;4941952;28;20530;-66
2023/08/07 02:35:56;;;;;;;8.13;1.70;;;;;;;-145.18;100.00;46656.50;4944931;29;20031;-66
2023/08/07 02:38:21;;;;;;;8.03;2.40;;;;;;;-145.18;100.00;46658.44;4936872;28;20031;-65
2023/08/07 02:40:46;;;;;;;13.40;2.03;;;;;;;-145.18;100.00;46656.50;4943323;28;20539;-66
2023/08/07 02:43:12;;;;;;;10.97;1.80;;;;;;;-145.18;100.00;46656.50;4942096;29;20035;-66
2023/08/07 02:45:37;;;;;;;9.03;2.33;;;;;;;-145.18;100.00;46658.44;4946796;28;20127;-66
2023/08/07 02:48:03;;;;;;;11.17;2.00;;;;;;;-145.18;100.00;46662.34;4946246;28;20032;-69
2023/08/07 02:50:32;;;;;;;7.40;1.60;;;;;;;-145.18;100.00;46662.34;4952073;29;20047;-65
2023/08/07 02:52:58;;;;;;;12.83;2.33;;;;;;;-145.18;100.00;46664.31;4940139;28;20111;-66
2023/08/07 02:55:23;;;;;;;8.50;2.10;;;;;;;-145.18;100.00;46666.25;4952249;28;20114;-66
2023/08/07 02:57:48;;;;;;;13.23;2.30;;;;;;;-145.18;100.00;46668.22;4940878;29;20392;-66
2023/08/07 03:00:14;;;;;;;7.33;2.03;;;;;;;-145.18;100.00;46666.25;4939480;28;20115;-65
2023/08/07 03:02:39;;;;;;;10.70;2.47;;;;;;;-145.18;100.00;46672.13;4939178;29;20031;-66
2023/08/07 03:05:05;;;;;;;10.93;2.10;;;;;;;-145.18;100.00;46670.16;4939222;29;20027;-66
2023/08/07 03:07:30;;;;;;;11.33;2.20;;;;;;;-145.18;100.00;46679.94;4946323;28;20031;-65
2023/08/07 03:09:56;;;;;;;6.37;1.60;;;;;;;-145.18;100.00;46681.88;4923414;29;20027;-65
2023/08/07 03:12:21;;;;;;;6.57;2.30;;;;;;;-145.18;100.00;46677.97;4939495;29;20121;-67
2023/08/07 03:14:47;;;;;;;8.33;1.70;;;;;;;-145.18;100.00;46683.84;4956324;28;20027;-65
2023/08/07 03:17:12;;;;;;;8.70;2.23;;;;;;;-145.18;100.00;46677.97;4946922;28;20028;-66
2023/08/07 03:19:40;;;;;;;7.57;1.90;;;;;;;-145.18;100.00;46677.97;4939351;28;20035;-65
2023/08/07 03:22:05;;;;;;;8.90;1.77;;;;;;;-145.18;100.00;46683.84;4940044;29;20023;-65
2023/08/07 03:24:30;;;;;;;11.57;1.80;;;;;;;-145.18;100.00;46695.56;4940230;28;20114;-65
2023/08/07 03:26:56;;;;;;;7.70;1.73;;;;;;;-145.18;100.00;46687.75;4940824;28;20507;-66
2023/08/07 03:29:21;;;;;;;11.67;2.33;;;;;;;-145.18;100.00;46677.97;4939146;28;20037;-66
2023/08/07 03:31:46;;;;;;;16.57;2.13;;;;;;;-145.18;100.00;46679.94;4941836;28;20043;-65
2023/08/07 03:34:12;;;;;;;9.40;1.97;;;;;;;-145.18;100.00;46681.88;4955270;28;20146;-66
2023/08/07 03:36:37;;;;;;;10.03;1.70;;;;;;;-145.18;100.00;46672.13;4947477;29;20071;-65
2023/08/07 03:39:03;;;;;;;10.33;1.70;;;;;;;-145.18;100.00;46676.03;4941901;29;20032;-66
2023/08/07 03:41:28;;;;;;;10.90;2.33;;;;;;;-145.18;100.00;46674.06;4941133;28;20031;-65
2023/08/07 03:43:53;;;;;;;5.30;1.47;;;;;;;-145.18;100.00;46676.03;4941287;28;20050;-65
2023/08/07 03:46:19;;;;;;;6.87;1.60;;;;;;;-145.18;100.00;46668.22;4949617;28;20534;-65
2023/08/07 03:48:44;;;;;;;7.50;1.20;;;;;;;-145.18;100.00;46666.25;4937949;28;20027;-65
2023/08/07 03:51:10;;;;;;;4.13;1.40;;;;;;;-145.18;100.00;46664.31;4947584;28;20042;-65
2023/08/07 03:53:36;;;;;;;4.27;1.23;;;;;;;-145.18;100.00;46668.22;4939392;29;20094;-65
2023/08/07 03:56:01;;;;;;;3.90;1.30;;;;;;;-145.18;100.00;46666.25;4951503;28;20179;-65
2023/08/07 03:58:27;;;;;;;10.37;2.00;;;;;;;-145.18;100.00;46660.41;4937200;29;20062;-67
2023/08/07 04:00:52;;;;;;;3.47;1.67;;;;;;;-145.18;100.00;46658.44;4936639;29;20032;-67
2023/08/07 04:03:21;;;;;;;6.60;1.70;;;;;;;-145.18;100.00;46662.34;4935766;28;20114;-67
2023/08/07 04:05:46;;;;;;;9.00;1.20;;;;;;;-145.18;100.00;46656.50;4935999;28;20036;-67
2023/08/07 04:08:12;;;;;;;11.70;1.70;;;;;;;-145.18;100.00;46664.31;4948474;28;20735;-67
2023/08/07 04:10:37;;;;;;;11.67;2.03;;;;;;;-145.18;100.00;46652.59;4944312;28;20051;-67
2023/08/07 04:13:03;;;;;;;5.93;1.70;;;;;;;-145.18;100.00;46658.44;4939289;28;20070;-67
2023/08/07 04:15:28;;;;;;;7.80;1.37;;;;;;;-145.18;100.00;46652.59;4935777;29;20038;-67
2023/08/07 04:17:54;;;;;;;5.87;1.53;;;;;;;-145.18;100.00;46654.53;4950324;28;20537;-68
2023/08/07 04:20:20;;;;;;;7.93;1.60;;;;;;;-145.18;100.00;46656.50;4927608;29;20487;-67
2023/08/07 04:22:46;;;;;;;5.93;1.57;;;;;;;-145.18;100.00;46660.41;4935512;28;20062;-67
2023/08/07 04:25:12;;;;;;;5.87;1.20;;;;;;;-145.18;100.00;46656.50;4935497;29;20062;-67
2023/08/07 04:27:38;;;;;;;5.47;1.10;;;;;;;-145.18;100.00;46656.50;4934225;28;20620;-67
2023/08/07 04:30:05;;;;;;;4.67;1.20;;;;;;;-145.18;100.00;46658.44;4935495;28;20035;-67
2023/08/07 04:32:30;;;;;;;6.47;1.10;;;;;;;-145.18;100.00;46662.34;4914333;28;20035;-67
2023/08/07 04:34:55;;;;;;;6.70;1.63;;;;;;;-145.18;100.00;46658.44;4939475;28;20075;-67
2023/08/07 04:37:21;;;;;;;7.23;1.70;;;;;;;-145.18;100.00;46658.44;4942927;28;20027;-67
2023/08/07 04:39:46;;;;;;;8.60;1.23;;;;;;;-145.18;100.00;46654.53;4936920;29;20046;-67
2023/08/07 04:42:11;;;;;;;7.30;1.73;;;;;;;-145.18;100.00;46658.44;4945346;28;20099;-67
2023/08/07 04:44:37;;;;;;;7.23;1.50;;;;;;;-145.18;100.00;46656.50;4937571;28;20046;-67
2023/08/07 04:47:02;;;;;;;9.10;1.57;;;;;;;-145.18;100.00;46656.50;4941915;29;20086;-67
2023/08/07 04:49:28;;;;;;;3.93;1.23;;;;;;;-145.18;100.00;46656.50;4948786;28;20110;-67
2023/08/07 04:51:53;;;;;;;7.57;1.67;;;;;;;-145.18;100.00;46660.41;4930878;29;20024;-67
2023/08/07 04:54:18;;;;;;;7.47;1.57;;;;;;;-145.18;100.00;46662.34;4943658;29;20047;-67
2023/08/07 04:56:44;;;;;;;8.83;1.80;;;;;;;-145.18;100.00;46658.44;4946009;28;20031;-67
2023/08/07 04:59:10;;;;;;;8.50;2.73;;;;;;;-145.18;100.00;46666.25;4946978;28;20042;-68
2023/08/07 05:01:36;;;;;;;11.67;1.70;;;;;;;-145.18;100.00;46666.25;4950023;28;20451;-67
2023/08/07 05:04:02;;;;;;;8.97;2.10;;;;;;;-145.18;100.00;46664.31;4934872;29;20047;-67
2023/08/07 05:06:27;;;;;;;7.07;1.53;;;;;;;-145.18;100.00;46660.41;4933273;28;20457;-68
2023/08/07 05:08:52;;;;;;;7.20;1.60;;;;;;;-145.18;100.00;46660.41;4935254;28;20568;-67
2023/08/07 05:11:20;;;;;;;11.30;1.67;;;;;;;-145.18;100.00;46658.44;4932410;28;20043;-67
2023/08/07 05:13:45;;;;;;;6.13;1.83;;;;;;;-145.18;100.00;46662.34;4941330;29;20077;-66
2023/08/07 05:16:11;;;;;;;4.37;1.37;;;;;;;-145.18;100.00;46654.53;4934457;28;20059;-66
2023/08/07 05:18:36;;;;;;;13.93;1.67;;;;;;;-145.18;100.00;46658.44;4942931;29;20166;-66
2023/08/07 05:21:01;;;;;;;4.87;1.13;;;;;;;-145.18;100.00;46656.50;4949703;28;20692;-66
2023/08/07 05:23:27;;;;;;;7.33;1.93;;;;;;;-145.18;100.00;46656.50;4934353;29;20047;-66
2023/08/07 05:25:52;;;;;;;5.50;1.77;;;;;;;-145.18;100.00;46660.41;4935155;28;20038;-66
2023/08/07 05:28:17;;;;;;;19.47;2.97;;;;;;;-145.18;100.00;46656.50;4944913;28;20105;-66
2023/08/07 05:30:43;;;;;;;5.03;1.50;;;;;;;-145.18;100.00;46660.41;4953676;28;20474;-66
2023/08/07 05:33:08;;;;;;;11.60;1.40;;;;;;;-145.18;100.00;46658.44;4947287;28;20110;-66
2023/08/07 05:35:34;;;;;;;9.07;2.07;;;;;;;-145.18;100.00;46664.31;4938450;28;20118;-66
2023/08/07 05:37:59;;;;;;;9.87;1.77;;;;;;;-145.18;100.00;46662.34;4934883;29;20107;-66
2023/08/07 05:40:24;;;;;;;13.77;2.47;;;;;;;-145.18;100.00;46666.25;4938755;29;20032;-66
2023/08/07 05:42:50;;;;;;;9.53;2.37;;;;;;;-145.18;100.00;46668.22;4942537;29;20059;-66
2023/08/07 05:45:15;;;;;;;10.37;1.83;;;;;;;-145.18;100.00;46668.22;4945869;28;20036;-66
2023/08/07 05:47:40;;;;;;;16.57;2.10;;;;;;;-145.18;100.00;46668.22;4934069;29;20047;-66
2023/08/07 05:50:06;;;;;;;12.07;2.30;;;;;;;-145.18;100.00;46666.25;4922003;29;20524;-66
2023/08/07 05:52:32;;;;;;;9.03;1.67;;;;;;;-145.18;100.00;46674.06;4936582;29;20059;-67
2023/08/07 05:54:57;;;;;;;9.47;1.93;;;;;;;-145.18;100.00;46668.22;4935097;28;20119;-67
2023/08/07 05:57:22;;;;;;;7.73;1.47;;;;;;;-145.18;100.00;46664.31;4941299;29;20051;-66
2023/08/07 05:59:48;;;;;;;9.13;2.00;;;;;;;-145.18;100.00;46666.25;4937214;28;20482;-67
2023/08/07 06:02:13;;;;;;;9.87;1.70;;;;;;;-145.18;100.00;46660.41;4943714;28;20115;-67
2023/08/07 06:04:38;;;;;;;7.73;2.33;;;;;;;-145.18;100.00;46662.34;4935242;28;20063;-67
2023/08/07 06:07:05;;;;;;;9.13;1.90;;;;;;;-145.18;100.00;46658.44;4945237;29;20050;-67
2023/08/07 06:09:31;;;;;;;4.10;1.40;;;;;;;-145.18;100.00;46652.59;4941267;28;20042;-67
2023/08/07 06:11:56;;;;;;;10.40;2.00;;;;;;;-145.18;100.00;46654.53;4941145;28;20032;-67
2023/08/07 06:14:22;;;;;;;7.90;1.80;;;;;;;-145.18;100.00;46648.69;4932713;28;20042;-68
2023/08/07 06:16:47;;;;;;;5.93;2.47;;;;;;;-145.18;100.00;46652.59;4940183;29;20035;-67
2023/08/07 06:19:13;;;;;;;11.97;2.30;;;;;;;-145.18;100.00;46646.72;4935792;28;20059;-68
2023/08/07 06:21:38;;;;;;;8.20;1.60;;;;;;;-145.18;100.00;46648.69;4934674;28;20178;-68
2023/08/07 06:24:04;;;;;;;12.83;1.90;;;;;;;-145.18;100.00;46644.78;4944609;28;20038;-68
2023/08/07 06:26:29;;;;;;;12.33;3.33;;;;;;;-145.18;100.00;46644.78;4931305;29;20151;-68
2023/08/07 06:28:54;;;;;;;10.37;1.90;;;;;;;-145.18;100.00;46648.69;4933029;28;20064;-67
2023/08/07 06:31:20;;;;;;;15.27;2.00;;;;;;;-145.18;100.00;46644.78;4932741;28;20035;-67
2023/08/07 06:33:45;;;;;;;14.13;2.43;;;;;;;-145.18;100.00;46644.78;4934907;29;20055;-67
2023/08/07 06:36:11;;;;;;;9.50;1.70;;;;;;;-145.18;100.00;46636.94;4934426;28;20036;-67
2023/08/07 06:38:36;;;;;;;13.67;2.70;;;;;;;-145.18;100.00;46640.88;4934328;29;20031;-67
2023/08/07 06:41:02;;;;;;;8.63;2.40;;;;;;;-145.18;100.00;46636.94;4933517;28;20094;-67
2023/08/07 06:43:27;;;;;;;12.33;1.83;;;;;;;-145.18;100.00;46638.91;4933386;28;20059;-67
2023/08/07 06:45:54;;;;;;;11.77;2.73;;;;;;;-145.18;100.00;46638.91;4933844;28;20094;-67
2023/08/07 06:48:19;;;;;;;9.10;1.90;;;;;;;-145.18;100.00;46640.88;4947952;28;20110;-68
2023/08/07 06:50:49;;;;;;;6.40;1.47;;;;;;;-145.18;100.00;46642.81;4945434;28;20051;-68
2023/08/07 06:53:14;;;;;;;3.33;1.23;;;;;;;-145.18;100.00;46640.88;4936092;28;20047;-68
2023/08/07 06:55:43;;;;;;;7.23;1.53;;;;;;;-145.18;100.00;46642.81;4932530;28;20024;-67
2023/08/07 06:58:10;;;;;;;6.57;1.70;;;;;;;-145.18;100.00;46640.88;4931426;28;20042;-67
2023/08/07 07:00:36;;;;;;;6.83;1.63;;;;;;;-145.18;100.00;46635.00;4945507;28;20032;-67
2023/08/07 07:03:02;;;;;;;6.73;1.97;;;;;;;-145.18;100.00;46636.94;4944101;28;20058;-67
2023/08/07 07:05:28;;;;;;;10.33;2.27;;;;;;;-145.18;100.00;46635.00;4942700;28;20060;-67
2023/08/07 07:07:54;;;;;;;11.27;2.50;;;;;;;-145.18;100.00;46631.09;4940371;28;20423;-67
2023/08/07 07:10:20;;;;;;;8.73;2.17;;;;;;;-145.18;100.00;46633.06;4936457;28;20159;-67
2023/08/07 07:12:45;;;;;;;9.70;2.40;;;;;;;-145.18;100.00;46633.06;4941549;29;20506;-67
2023/08/07 07:15:10;;;;;;;7.67;1.80;;;;;;;-145.18;100.00;46635.00;4934941;28;20047;-67
2023/08/07 07:17:36;;;;;;;7.73;2.13;;;;;;;-145.18;100.00;46631.09;4937014;29;20400;-67
2023/08/07 07:20:01;;;;;;;10.17;2.57;;;;;;;-145.18;100.00;46629.13;4935431;28;20657;-67
2023/08/07 07:22:28;;;;;;;6.53;2.60;;;;;;;-145.18;100.00;46623.28;4931912;29;20066;-67
2023/08/07 07:24:54;;;;;;;7.90;2.30;;;;;;;-145.18;100.00;46627.19;4946037;28;20031;-69
2023/08/07 07:27:19;;;;;;;10.93;2.67;;;;;;;-145.18;100.00;46631.09;4932896;28;20499;-68
2023/08/07 07:29:45;;;;;;;6.33;2.17;;;;;;;-145.18;100.00;46633.06;4932901;28;20123;-68
2023/08/07 07:32:10;;;;;;;9.90;2.07;;;;;;;-145.18;100.00;46631.09;4933371;28;20024;-68
2023/08/07 07:34:35;;;;;;;8.47;2.20;;;;;;;-145.18;100.00;46633.06;4943109;29;20058;-68
2023/08/07 07:37:01;;;;;;;13.57;2.47;;;;;;;-145.18;100.00;46629.13;4940334;28;20669;-68
2023/08/07 07:39:26;;;;;;;13.03;3.73;;;;;;;-145.18;100.00;46636.94;4942313;29;20061;-68
2023/08/07 07:41:52;;;;;;;8.93;1.90;;;;;;;-145.18;100.00;46640.88;4939201;28;20115;-68
2023/08/07 07:44:17;;;;;;;6.63;1.93;;;;;;;-145.18;100.00;46648.69;4936057;29;20035;-68
2023/08/07 07:46:42;;;;;;;6.70;1.63;;;;;;;-145.18;100.00;46654.53;4935437;28;20043;-68
2023/08/07 07:49:08;;;;;;;5.53;1.90;;;;;;;-145.18;100.00;46670.16;4936380;28;20039;-68
2023/08/07 07:51:35;;;;;;;12.73;2.10;;;;;;;-145.18;100.00;46676.03;4935516;28;20491;-68
2023/08/07 07:54:00;;;;;;;8.30;1.30;;;;;;;-145.18;100.00;46683.84;4942849;28;20034;-68
2023/08/07 07:56:26;;;;;;;6.47;1.80;;;;;;;-145.18;100.00;46679.94;4941030;28;20035;-68
2023/08/07 07:58:51;;;;;;;8.77;1.90;;;;;;;-145.18;100.00;46687.75;4940271;28;20066;-67
2023/08/07 08:01:18;;;;;;;5.13;1.43;;;;;;;-145.18;100.00;46689.69;4938409;29;20078;-67
2023/08/07 08:03:43;;;;;;;3.70;1.70;;;;;;;-145.18;100.00;46691.66;4943039;28;20027;-67
2023/08/07 08:06:09;;;;;;;7.43;1.43;;;;;;;-145.18;100.00;46691.66;4944249;28;20098;-67
2023/08/07 08:08:34;;;;;;;5.97;1.50;;;;;;;-145.18;100.00;46699.47;4933676;28;20036;-67
2023/08/07 08:10:59;;;;;;;4.40;1.83;;;;;;;-145.18;100.00;46699.47;4933231;28;20024;-67
2023/08/07 08:13:25;;;;;;;3.23;1.30;;;;;;;-145.18;100.00;46656.50;4936865;29;20094;-67
2023/08/07 08:15:50;;;;;;;6.67;1.20;;;;;;;-145.18;100.00;46586.16;4936498;28;20039;-68
2023/08/07 08:18:16;;;;;;;5.87;1.60;;;;;;;-145.18;100.00;46576.41;4938630;28;20042;-67
2023/08/07 08:20:41;;;;;;;5.13;1.20;;;;;;;-145.18;100.00;46578.34;4945094;29;20025;-68
2023/08/07 08:23:07;;;;;;;4.83;1.40;;;;;;;-145.18;100.00;46578.34;4947821;28;20244;-68
2023/08/07 08:25:35;;;;;;;9.97;2.07;;;;;;;-145.18;100.00;46584.22;4936342;29;20111;-68
2023/08/07 08:28:00;;;;;;;7.73;1.47;;;;;;;-145.18;100.00;46586.16;4945875;28;20074;-68
2023/08/07 08:30:26;;;;;;;7.57;1.70;;;;;;;-145.18;100.00;46592.03;4942387;28;20459;-68
2023/08/07 08:32:51;;;;;;;7.73;1.70;;;;;;;-145.18;100.00;46595.94;4935987;29;20044;-68
2023/08/07 08:35:17;;;;;;;5.90;1.73;;;;;;;-145.18;100.00;46593.97;4934576;29;20071;-68
2023/08/07 08:37:42;;;;;;;4.60;1.23;;;;;;;-145.18;100.00;46590.06;4935828;28;20055;-68
2023/08/07 08:40:17;;;;;;;4.83;1.60;;;;;;;-145.18;100.00;46592.03;4940122;28;20090;-66
2023/08/07 08:42:44;;;;;;;6.57;1.60;;;;;;;-145.18;100.00;46582.25;4937347;28;20080;-66
2023/08/07 08:45:13;;;;;;;6.00;1.60;;;;;;;-145.18;100.00;46592.03;4938678;28;20086;-66
2023/08/07 08:47:40;;;;;;;9.43;2.37;;;;;;;-145.18;100.00;46592.03;4940766;28;20031;-66
2023/08/07 08:50:11;;;;;;;3.80;1.23;;;;;;;-145.18;100.00;46605.69;4947430;28;20041;-66
2023/08/07 08:52:38;;;;;;;7.13;2.13;;;;;;;-145.18;100.00;46597.88;4950189;28;20113;-65
2023/08/07 08:55:06;;;;;;;4.93;1.30;;;;;;;-145.18;100.00;46611.56;4939512;28;20040;-65
2023/08/07 08:57:32;;;;;;;6.23;1.60;;;;;;;-145.18;100.00;46617.41;4948621;28;20027;-65
2023/08/07 08:59:58;;;;;;;5.07;1.17;;;;;;;-145.18;100.00;46623.28;4938185;28;20118;-66
2023/08/07 09:02:25;;;;;;;4.83;1.47;;;;;;;-145.18;100.00;46613.50;4942439;28;20163;-65
2023/08/07 09:04:50;;;;;;;6.17;1.10;;;;;;;-145.18;100.00;46621.31;4940890;28;20039;-65
2023/08/07 09:07:19;;;;;;;2.73;1.27;;;;;;;-145.18;100.00;46636.94;4945604;28;20035;-66
2023/08/07 09:09:46;;;;;;;3.97;1.27;;;;;;;-145.18;100.00;46631.09;4945465;28;20576;-66
2023/08/07 09:12:19;;;;;;;4.63;1.60;;;;;;;-145.18;100.00;46660.41;4934720;28;20036;-65
2023/08/07 09:14:49;;;;;;;2.03;0.90;;;;;;;-145.18;100.00;46638.91;4949382;28;20039;-65
2023/08/07 09:17:15;;;;;;;7.50;1.40;;;;;;;-145.18;100.00;46644.78;4944591;28;20118;-65
2023/08/07 09:19:41;;;;;;;5.67;0.97;;;;;;;-145.18;100.00;46685.78;4935489;28;20062;-65
2023/08/07 09:22:06;;;;;;;6.43;2.00;;;;;;;-145.18;100.00;46709.22;4944014;28;20074;-65
2023/08/07 09:24:32;;;;;;;3.73;1.20;;;;;;;-145.18;100.00;46750.25;4936872;28;20130;-65
2023/08/07 09:26:58;;;;;;;4.87;1.30;;;;;;;-145.18;100.00;46752.19;4932667;29;20171;-65
2023/08/07 09:29:24;;;;;;;5.07;1.40;;;;;;;-145.18;100.00;46732.66;4936215;28;20035;-65
2023/08/07 09:31:49;;;;;;;3.97;1.23;;;;;;;-145.18;100.00;46765.88;4935169;28;20102;-64
2023/08/07 09:34:19;;;;;;;4.47;1.13;;;;;;;-145.18;100.00;46746.34;4944769;29;20463;-65
2023/08/07 09:36:45;;;;;;;3.23;1.07;;;;;;;-145.18;100.00;46732.66;4936017;28;20043;-64
2023/08/07 09:39:11;;;;;;;5.97;1.10;;;;;;;-145.18;100.00;46734.63;4941234;28;20043;-65
2023/08/07 09:41:36;;;;;;;4.87;1.83;;;;;;;-145.18;100.00;46734.63;4933970;28;20064;-65
2023/08/07 09:44:10;;;;;;;4.40;1.50;;;;;;;-145.18;100.00;46693.59;4938470;29;20523;-65
2023/08/07 09:46:43;;;;;;;3.43;1.03;;;;;;;-145.18;100.00;46859.63;4935591;28;20028;-65
2023/08/07 09:49:09;;;;;;;6.50;1.97;;;;;;;-145.18;100.00;47273.78;4938015;29;20483;-67
2023/08/07 09:51:44;;;;;;;4.03;1.77;;;;;;;-145.18;100.00;47320.69;4935284;28;20023;-67
2023/08/07 09:54:09;;;;;;;1.92;0.93;;;;;;;-145.18;100.00;47383.19;4943209;28;20035;-67
2023/08/07 09:56:36;;;;;;;3.97;0.90;;;;;;;-145.18;100.00;47305.06;4937195;28;20047;-67
2023/08/07 09:59:01;;;;;;;3.30;1.37;;;;;;;-145.18;100.00;47312.88;4936845;28;20399;-67
2023/08/07 10:01:27;;;;;;;6.73;2.13;;;;;;;-145.18;100.00;47387.09;4936192;28;20036;-67
2023/08/07 10:03:52;;;;;;;2.83;1.40;;;;;;;-145.18;100.00;47340.22;4936510;28;20122;-67
2023/08/07 10:06:19;;;;;;;4.57;0.97;;;;;;;-145.18;100.00;47293.31;4933509;28;20043;-67
2023/08/07 10:08:45;;;;;;;5.67;1.00;;;;;;;-145.18;100.00;47295.28;4943035;29;20032;-67
2023/08/07 10:11:11;;;;;;;3.63;1.20;;;;;;;-145.18;100.00;47324.59;4936958;29;20028;-67
2023/08/07 10:13:38;;;;;;;2.43;1.33;;;;;;;-145.18;100.00;47340.22;4935101;28;20035;-67
2023/08/07 10:16:04;;;;;;;6.53;1.50;;;;;;;-145.18;100.00;47340.22;4933263;28;20042;-67
2023/08/07 10:18:30;;;;;;;4.40;1.10;;;;;;;-145.18;100.00;47383.19;4941573;28;20410;-67
2023/08/07 10:20:57;;;;;;;4.47;1.23;;;;;;;-145.18;100.00;47363.66;4936531;28;20679;-67
2023/08/07 10:23:23;;;;;;;3.20;1.40;;;;;;;-145.18;100.00;47367.56;4938968;29;20027;-67
2023/08/07 10:25:51;;;;;;;4.90;1.47;;;;;;;-145.18;100.00;47324.59;4935248;28;20038;-67
2023/08/07 10:28:18;;;;;;;4.47;1.73;;;;;;;-145.18;100.00;47346.06;4940387;28;20035;-67
2023/08/07 10:30:44;;;;;;;5.80;1.30;;;;;;;-145.18;100.00;47285.50;4939157;28;20027;-66
2023/08/07 10:33:11;;;;;;;6.30;1.37;;;;;;;-145.18;100.00;47310.91;4946984;28;20019;-66
2023/08/07 10:35:37;;;;;;;6.23;2.03;;;;;;;-145.18;100.00;47273.78;4935296;28;20573;-67
2023/08/07 10:38:11;;;;;;;6.70;1.67;;;;;;;-145.18;100.00;47238.63;4935567;28;20123;-66
2023/08/07 10:41:00;;;;;;;5.47;1.20;;;;;;;-145.18;100.00;47217.13;4948074;28;20040;-66
2023/08/07 10:43:27;;;;;;;2.73;1.30;;;;;;;-145.18;100.00;47234.72;4938113;29;20546;-66
2023/08/07 10:45:53;;;;;;;3.97;1.13;;;;;;;-145.18;100.00;47232.75;4944065;29;20039;-66
2023/08/07 10:48:20;;;;;;;2.27;1.43;;;;;;;-145.18;100.00;47226.91;4935904;28;20624;-66
2023/08/07 10:50:54;;;;;;;6.83;1.50;;;;;;;-145.18;100.00;47254.25;4944759;28;20036;-66
2023/08/07 10:53:31;;;;;;;5.13;1.83;;;;;;;-145.18;100.00;47203.47;4937493;29;20055;-67
2023/08/07 10:55:57;;;;;;;3.03;1.10;;;;;;;-145.18;100.00;47242.53;4932813;29;20508;-66
2023/08/07 10:58:31;;;;;;;2.80;1.13;;;;;;;-145.18;100.00;47217.13;4935356;28;20499;-66
2023/08/07 11:01:17;;;;;;;5.50;1.40;;;;;;;-145.18;100.00;47205.41;4941443;28;20044;-66
2023/08/07 11:03:43;;;;;;;2.77;1.27;;;;;;;-145.18;100.00;47215.19;4933373;28;20123;-66